createdAt,value
2023-03-16T00:00:13.698Z,1.34
2023-03-16T00:02:41.952Z,1.36
2023-03-16T00:05:10.193Z,1.36
2023-03-16T00:07:42.310Z,1.40
2023-03-16T00:10:21.067Z,1.41
2023-03-16T00:12:49.973Z,1.41
2023-03-16T00:15:16.431Z,1.38
2023-03-16T00:17:48.755Z,1.36
2023-03-16T00:20:17.154Z,1.35
2023-03-16T00:22:45.092Z,1.36
2023-03-16T00:25:18.350Z,1.40
2023-03-16T00:27:48.820Z,1.40
2023-03-16T00:30:18.324Z,1.38
2023-03-16T00:32:44.822Z,1.33
2023-03-16T00:35:11.427Z,1.23
2023-03-16T00:37:39.392Z,1.22
2023-03-16T00:40:07.909Z,1.23
2023-03-16T00:42:37.467Z,1.26
2023-03-16T00:45:05.858Z,1.27
2023-03-16T00:47:37.102Z,1.28
2023-03-16T00:50:03.943Z,1.33
2023-03-16T00:52:30.597Z,1.35
2023-03-16T00:54:57.269Z,1.39
2023-03-16T00:57:25.798Z,1.36
2023-03-16T00:59:52.790Z,1.40
2023-03-16T01:02:24.444Z,1.38
2023-03-16T01:04:54.445Z,1.34
2023-03-16T01:07:21.890Z,1.29
2023-03-16T01:09:48.531Z,1.28
2023-03-16T01:12:17.988Z,1.30
2023-03-16T01:14:48.308Z,1.26
2023-03-16T01:17:17.355Z,1.24
2023-03-16T01:19:44.730Z,1.20
2023-03-16T01:22:11.907Z,1.14
2023-03-16T01:24:45.862Z,1.15
2023-03-16T01:27:13.171Z,1.21
2023-03-16T01:29:43.741Z,1.24
2023-03-16T01:32:13.210Z,1.25
2023-03-16T01:34:45.375Z,1.21
2023-03-16T01:37:11.911Z,1.27
2023-03-16T01:39:38.469Z,1.26
2023-03-16T01:42:05.105Z,1.24
2023-03-16T01:44:51.781Z,1.22
2023-03-16T01:47:18.456Z,1.25
2023-03-16T01:49:50.549Z,1.20
2023-03-16T01:52:21.348Z,1.22
2023-03-16T01:55:15.048Z,1.22
2023-03-16T01:57:46.007Z,1.27
2023-03-16T02:00:23.828Z,1.30
2023-03-16T02:02:58.201Z,1.51
2023-03-16T02:05:31.166Z,1.60
2023-03-16T02:08:01.619Z,1.55
2023-03-16T02:10:29.500Z,1.53
2023-03-16T02:12:58.014Z,1.56
2023-03-16T02:15:36.064Z,1.54
2023-03-16T02:18:04.243Z,1.52
2023-03-16T02:20:39.796Z,1.45
2023-03-16T02:23:18.413Z,1.36
2023-03-16T02:25:59.516Z,1.34
2023-03-16T02:28:36.036Z,1.40
2023-03-16T02:31:04.650Z,1.44
2023-03-16T02:33:33.079Z,1.42
2023-03-16T02:35:59.740Z,1.35
2023-03-16T02:38:26.362Z,1.37
2023-03-16T02:41:02.223Z,1.36
2023-03-16T02:43:33.498Z,1.31
2023-03-16T02:46:05.054Z,1.28
2023-03-16T02:48:45.852Z,1.34
2023-03-16T02:51:12.950Z,1.34
2023-03-16T02:53:39.487Z,1.28
2023-03-16T02:56:06.324Z,1.26
2023-03-16T02:58:32.986Z,1.20
2023-03-16T03:00:59.499Z,1.20
2023-03-16T03:03:26.027Z,1.19
2023-03-16T03:05:52.542Z,1.18
2023-03-16T03:08:22.799Z,1.20
2023-03-16T03:10:49.883Z,1.17
2023-03-16T03:13:16.765Z,1.22
2023-03-16T03:15:43.515Z,1.21
2023-03-16T03:18:10.135Z,1.27
2023-03-16T03:20:36.719Z,1.27
2023-03-16T03:23:03.685Z,1.35
2023-03-16T03:25:30.206Z,1.43
2023-03-16T03:27:56.844Z,1.48
2023-03-16T03:30:25.260Z,1.50
2023-03-16T03:32:54.643Z,1.56
2023-03-16T03:35:22.129Z,1.48
2023-03-16T03:37:49.752Z,1.49
2023-03-16T03:40:20.449Z,1.48
2023-03-16T03:42:47.822Z,1.57
2023-03-16T03:45:15.047Z,1.69
2023-03-16T03:47:42.972Z,1.78
2023-03-16T03:50:11.832Z,1.82
2023-03-16T03:52:38.303Z,1.82
2023-03-16T03:55:05.886Z,1.79
2023-03-16T03:57:32.395Z,1.75
2023-03-16T03:59:58.864Z,1.67
2023-03-16T04:02:25.382Z,1.55
2023-03-16T04:04:51.950Z,1.49
2023-03-16T04:07:18.405Z,1.48
2023-03-16T04:09:45.072Z,1.50
2023-03-16T04:12:11.876Z,1.66
2023-03-16T04:14:40.211Z,1.73
2023-03-16T04:17:07.424Z,1.76
2023-03-16T04:19:33.966Z,1.73
2023-03-16T04:22:00.458Z,1.76
2023-03-16T04:24:26.955Z,1.70
2023-03-16T04:26:54.267Z,1.67
2023-03-16T04:29:20.829Z,1.77
2023-03-16T04:31:47.318Z,1.84
2023-03-16T04:34:14.124Z,1.89
2023-03-16T04:36:42.074Z,1.88
2023-03-16T04:39:10.306Z,1.89
2023-03-16T04:41:37.289Z,1.92
2023-03-16T04:44:04.741Z,1.87
2023-03-16T04:46:31.425Z,1.82
2023-03-16T04:48:58.423Z,1.79
2023-03-16T04:51:26.407Z,1.71
2023-03-16T04:53:53.108Z,1.71
2023-03-16T04:56:19.929Z,1.70
2023-03-16T04:58:47.772Z,1.71
2023-03-16T05:01:14.637Z,1.69
2023-03-16T05:03:41.682Z,1.65
2023-03-16T05:06:08.232Z,1.70
2023-03-16T05:08:34.676Z,1.67
2023-03-16T05:11:01.211Z,1.73
2023-03-16T05:13:27.970Z,1.78
2023-03-16T05:15:54.526Z,1.84
2023-03-16T05:18:25.675Z,1.82
2023-03-16T05:20:54.441Z,1.81
2023-03-16T05:23:21.898Z,1.78
2023-03-16T05:25:52.592Z,1.78
2023-03-16T05:28:19.172Z,1.79
2023-03-16T05:30:45.822Z,1.79
2023-03-16T05:33:12.739Z,1.72
2023-03-16T05:35:39.824Z,1.63
2023-03-16T05:38:06.758Z,1.55
2023-03-16T05:40:33.365Z,1.46
2023-03-16T05:43:00.554Z,1.43
2023-03-16T05:45:28.473Z,1.45
2023-03-16T05:47:54.997Z,1.58
2023-03-16T05:50:22.370Z,1.52
2023-03-16T05:52:49.110Z,1.44
2023-03-16T05:55:17.317Z,1.34
2023-03-16T05:57:47.429Z,1.33
2023-03-16T06:00:17.534Z,1.42
2023-03-16T06:02:49.329Z,1.64
2023-03-16T06:05:17.156Z,1.74
2023-03-16T06:07:43.982Z,1.82
2023-03-16T06:10:11.777Z,1.86
2023-03-16T06:12:39.085Z,1.93
2023-03-16T06:15:07.856Z,1.87
2023-03-16T06:17:38.483Z,1.82
2023-03-16T06:20:10.712Z,1.80
2023-03-16T06:22:38.911Z,1.81
2023-03-16T06:25:07.293Z,1.92
2023-03-16T06:27:34.179Z,2.13
2023-03-16T06:30:01.519Z,2.12
2023-03-16T06:32:30.569Z,2.10
2023-03-16T06:34:59.468Z,2.25
2023-03-16T06:37:25.983Z,2.32
2023-03-16T06:39:52.411Z,2.30
2023-03-16T06:42:18.960Z,2.31
2023-03-16T06:44:45.408Z,2.39
2023-03-16T06:47:11.997Z,2.49
2023-03-16T06:49:38.565Z,2.48
2023-03-16T06:52:05.489Z,2.46
2023-03-16T06:54:34.211Z,2.50
2023-03-16T06:57:01.545Z,2.48
2023-03-16T06:59:28.101Z,2.57
2023-03-16T07:01:54.761Z,2.70
2023-03-16T07:04:21.763Z,2.81
2023-03-16T07:06:48.336Z,2.76
2023-03-16T07:09:14.847Z,2.76
2023-03-16T07:11:41.409Z,2.81
2023-03-16T07:14:11.044Z,2.82
2023-03-16T07:16:37.899Z,2.73
2023-03-16T07:19:04.785Z,2.79
2023-03-16T07:21:39.064Z,2.83
2023-03-16T07:24:07.362Z,2.87
2023-03-16T07:26:34.192Z,3.04
2023-03-16T07:29:00.742Z,3.11
2023-03-16T07:31:27.565Z,3.16
2023-03-16T07:33:54.075Z,3.24
2023-03-16T07:36:20.647Z,3.31
2023-03-16T07:38:47.231Z,3.39
2023-03-16T07:41:14.096Z,3.43
2023-03-16T07:43:40.639Z,3.58
2023-03-16T07:46:07.201Z,3.74
2023-03-16T07:48:34.280Z,3.93
2023-03-16T07:51:00.822Z,4.08
2023-03-16T07:53:27.349Z,4.15
2023-03-16T07:55:53.843Z,4.17
2023-03-16T07:58:20.454Z,4.19
2023-03-16T08:00:46.921Z,4.22
2023-03-16T08:03:13.936Z,4.26
2023-03-16T08:05:40.470Z,4.30
2023-03-16T08:08:09.691Z,4.31
2023-03-16T08:10:36.298Z,4.40
2023-03-16T08:13:05.073Z,4.49
2023-03-16T08:15:33.907Z,4.55
2023-03-16T08:18:02.566Z,4.57
2023-03-16T08:20:29.852Z,4.61
2023-03-16T08:22:59.701Z,4.65
2023-03-16T08:25:26.629Z,4.83
2023-03-16T08:27:53.169Z,4.86
2023-03-16T08:30:19.768Z,4.87
2023-03-16T08:32:46.253Z,5.07
2023-03-16T08:35:15.404Z,5.14
2023-03-16T08:37:41.962Z,5.14
2023-03-16T08:40:16.921Z,5.06
2023-03-16T08:42:44.830Z,5.16
2023-03-16T08:45:14.137Z,5.30
2023-03-16T08:47:41.630Z,5.34
2023-03-16T08:50:10.050Z,5.35
2023-03-16T08:52:36.775Z,5.38
2023-03-16T08:55:07.294Z,5.47
2023-03-16T08:57:34.159Z,5.52
2023-03-16T09:00:01.371Z,5.56
2023-03-16T09:02:27.966Z,5.60
2023-03-16T09:04:54.740Z,5.56
2023-03-16T09:07:21.932Z,5.60
2023-03-16T09:09:48.492Z,5.66
2023-03-16T09:12:15.209Z,5.73
2023-03-16T09:14:41.716Z,5.74
2023-03-16T09:17:08.213Z,5.70
2023-03-16T09:19:50.626Z,5.74
2023-03-16T09:22:19.833Z,5.85
2023-03-16T09:24:46.877Z,5.98
2023-03-16T09:27:13.476Z,6.11
2023-03-16T09:29:41.044Z,6.30
2023-03-16T09:32:08.555Z,6.53
2023-03-16T09:34:36.018Z,6.77
2023-03-16T09:37:02.684Z,6.91
2023-03-16T09:39:29.147Z,7.03
2023-03-16T09:42:04.342Z,7.07
2023-03-16T09:44:52.043Z,7.21
2023-03-16T09:47:27.566Z,7.28
2023-03-16T09:49:58.274Z,7.06
2023-03-16T09:52:34.091Z,6.73
2023-03-16T09:55:56.771Z,6.89
2023-03-16T09:58:43.876Z,7.14
2023-03-16T10:01:37.227Z,7.33
2023-03-16T10:04:59.342Z,7.41
2023-03-16T10:10:51.628Z,7.78
2023-03-16T10:13:40.376Z,8.01
2023-03-16T10:16:22.532Z,8.04
2023-03-16T10:18:53.443Z,8.14
2023-03-16T10:21:21.249Z,8.06
2023-03-16T10:23:49.734Z,8.06
2023-03-16T10:26:22.943Z,8.13
2023-03-16T10:28:53.048Z,8.19
2023-03-16T10:31:22.999Z,8.14
2023-03-16T10:33:56.495Z,8.35
2023-03-16T10:36:32.264Z,8.38
2023-03-16T10:39:13.997Z,8.38
2023-03-16T10:41:45.810Z,8.37
2023-03-16T10:44:21.587Z,8.39
2023-03-16T10:46:54.040Z,8.50
2023-03-16T10:49:27.209Z,8.50
2023-03-16T10:52:02.833Z,8.47
2023-03-16T10:54:34.152Z,8.50
2023-03-16T10:57:13.569Z,8.60
2023-03-16T10:59:40.203Z,8.37
2023-03-16T11:02:17.979Z,8.33
2023-03-16T11:04:44.608Z,8.17
2023-03-16T11:07:17.425Z,8.25
2023-03-16T11:09:44.834Z,8.34
2023-03-16T11:12:15.560Z,8.43
2023-03-16T11:14:45.364Z,8.63
2023-03-16T11:17:38.182Z,8.60
2023-03-16T11:20:12.332Z,8.70
2023-03-16T11:22:40.711Z,8.60
2023-03-16T11:25:20.386Z,8.48
2023-03-16T11:28:04.179Z,8.46
2023-03-16T11:30:48.748Z,8.58
2023-03-16T11:33:15.668Z,8.57
2023-03-16T11:36:00.992Z,8.77
2023-03-16T11:38:48.148Z,8.86
2023-03-16T11:41:28.982Z,8.64
2023-03-16T11:43:57.548Z,8.67
2023-03-16T11:46:31.553Z,8.86
2023-03-16T11:49:06.694Z,8.97
2023-03-16T11:51:42.561Z,8.91
2023-03-16T11:54:42.346Z,8.96
2023-03-16T11:57:54.187Z,8.85
2023-03-16T12:00:36.955Z,8.80
2023-03-16T12:03:24.762Z,8.89
2023-03-16T12:05:59.854Z,8.96
2023-03-16T12:09:04.491Z,8.85
2023-03-16T12:11:40.289Z,8.75
2023-03-16T12:14:44.061Z,8.68
2023-03-16T12:17:27.252Z,8.47
2023-03-16T12:20:00.868Z,8.49
2023-03-16T12:22:34.648Z,8.57
2023-03-16T12:25:04.077Z,8.53
2023-03-16T12:27:36.593Z,8.60
2023-03-16T12:30:06.216Z,8.57
2023-03-16T12:32:45.646Z,8.59
2023-03-16T12:35:18.047Z,8.57
2023-03-16T12:38:00.138Z,8.59
2023-03-16T12:40:26.992Z,8.62
2023-03-16T12:42:54.386Z,8.57
2023-03-16T12:45:38.375Z,8.60
2023-03-16T12:48:10.894Z,8.58
2023-03-16T12:50:49.150Z,8.60
2023-03-16T12:53:51.718Z,8.75
2023-03-16T12:56:21.409Z,8.76
2023-03-16T12:58:50.266Z,8.71
2023-03-16T13:01:20.714Z,8.67
2023-03-16T13:03:49.799Z,8.65
2023-03-16T13:06:23.531Z,8.58
2023-03-16T13:08:59.824Z,8.41
2023-03-16T13:11:27.251Z,8.40
2023-03-16T13:13:59.485Z,8.45
2023-03-16T13:16:30.109Z,8.42
2023-03-16T13:18:56.950Z,8.54
2023-03-16T13:21:41.115Z,8.46
2023-03-16T13:24:18.060Z,8.39
2023-03-16T13:26:49.936Z,8.25
2023-03-16T13:29:27.417Z,8.20
2023-03-16T13:31:57.974Z,8.13
2023-03-16T13:34:30.352Z,8.10
2023-03-16T13:36:59.451Z,8.09
2023-03-16T13:39:28.591Z,8.07
2023-03-16T13:42:01.796Z,8.08
2023-03-16T13:44:29.538Z,8.02
2023-03-16T13:46:56.248Z,7.98
2023-03-16T13:49:23.353Z,7.96
2023-03-16T13:51:50.073Z,7.97
2023-03-16T13:54:28.135Z,7.99
2023-03-16T13:57:01.445Z,8.03
2023-03-16T13:59:27.912Z,8.03
2023-03-16T14:02:01.697Z,8.06
2023-03-16T14:04:30.947Z,8.06
2023-03-16T14:07:02.347Z,7.96
2023-03-16T14:09:33.160Z,7.86
2023-03-16T14:11:59.981Z,7.80
2023-03-16T14:14:31.943Z,7.76
2023-03-16T14:17:03.903Z,7.78
2023-03-16T14:19:36.042Z,7.80
2023-03-16T14:22:04.204Z,7.90
2023-03-16T14:24:37.699Z,7.90
2023-03-16T14:27:21.856Z,7.92
2023-03-16T14:30:26.028Z,7.92
2023-03-16T14:33:06.869Z,7.91
2023-03-16T14:35:41.744Z,7.85
2023-03-16T14:38:29.943Z,7.85
2023-03-16T14:40:58.838Z,7.86
2023-03-16T14:43:30.687Z,7.86
2023-03-16T14:45:57.730Z,7.90
2023-03-16T14:48:28.379Z,7.84
2023-03-16T14:50:58.272Z,7.80
2023-03-16T14:53:28.310Z,7.76
2023-03-16T14:55:58.903Z,7.73
2023-03-16T14:58:26.086Z,7.71
2023-03-16T15:00:53.795Z,7.73
2023-03-16T15:03:23.932Z,7.72
2023-03-16T15:05:52.011Z,7.76
2023-03-16T15:08:28.611Z,7.78
2023-03-16T15:11:00.762Z,7.79
2023-03-16T15:13:47.576Z,7.79
2023-03-16T15:16:14.386Z,7.82
2023-03-16T15:18:41.905Z,7.91
2023-03-16T15:21:14.294Z,7.96
2023-03-16T15:23:42.925Z,7.97
2023-03-16T15:26:12.025Z,7.98
2023-03-16T15:28:38.744Z,7.90
2023-03-16T15:31:05.281Z,7.88
2023-03-16T15:33:32.530Z,7.85
2023-03-16T15:36:03.342Z,7.81
2023-03-16T15:38:33.445Z,7.79
2023-03-16T15:41:00.318Z,7.78
2023-03-16T15:43:28.988Z,7.76
2023-03-16T15:45:59.853Z,7.77
2023-03-16T15:48:29.334Z,7.77
2023-03-16T15:51:02.038Z,7.77
2023-03-16T15:53:31.100Z,7.77
2023-03-16T15:56:03.232Z,7.74
2023-03-16T15:58:32.392Z,7.74
2023-03-16T16:01:00.739Z,7.73
2023-03-16T16:03:27.644Z,7.71
2023-03-16T16:05:54.679Z,7.62
2023-03-16T16:08:21.714Z,7.57
2023-03-16T16:10:49.741Z,7.53
2023-03-16T16:13:44.038Z,7.50
2023-03-16T16:16:17.782Z,7.48
2023-03-16T16:18:45.134Z,7.48
2023-03-16T16:21:22.302Z,7.44
2023-03-16T16:23:49.731Z,7.43
2023-03-16T16:26:50.555Z,7.38
2023-03-16T16:29:30.001Z,7.35
2023-03-16T16:31:56.776Z,7.31
2023-03-16T16:34:27.910Z,7.28
2023-03-16T16:36:55.992Z,7.30
2023-03-16T16:39:23.179Z,7.26
2023-03-16T16:41:54.989Z,7.21
2023-03-16T16:44:27.143Z,7.17
2023-03-16T16:46:54.897Z,7.12
2023-03-16T16:49:23.761Z,7.13
2023-03-16T16:51:51.465Z,7.10
2023-03-16T16:54:24.197Z,7.04
2023-03-16T16:56:55.617Z,7.02
2023-03-16T16:59:28.926Z,7.00
2023-03-16T17:01:56.718Z,6.95
2023-03-16T17:04:25.920Z,6.89
2023-03-16T17:06:55.601Z,6.93
2023-03-16T17:09:23.279Z,6.88
2023-03-16T17:11:51.116Z,6.81
2023-03-16T17:14:21.249Z,6.72
2023-03-16T17:16:49.731Z,6.67
2023-03-16T17:19:23.316Z,6.67
2023-03-16T17:21:51.113Z,6.77
2023-03-16T17:24:20.979Z,6.78
2023-03-16T17:26:51.170Z,6.78
2023-03-16T17:29:22.964Z,6.70
2023-03-16T17:31:50.474Z,6.61
2023-03-16T17:34:20.506Z,6.55
2023-03-16T17:36:47.084Z,6.52
2023-03-16T17:39:20.964Z,6.47
2023-03-16T17:41:56.598Z,6.46
2023-03-16T17:44:24.612Z,6.44
2023-03-16T17:46:51.312Z,6.40
2023-03-16T17:49:18.506Z,6.36
2023-03-16T17:51:45.656Z,6.43
2023-03-16T17:54:12.649Z,6.42
2023-03-16T17:56:41.768Z,6.44
2023-03-16T17:59:17.357Z,6.41
2023-03-16T18:01:45.910Z,6.38
2023-03-16T18:04:21.053Z,6.25
2023-03-16T18:06:48.241Z,6.17
2023-03-16T18:09:19.182Z,6.20
2023-03-16T18:11:48.810Z,6.21
2023-03-16T18:14:43.748Z,6.07
2023-03-16T18:17:24.061Z,6.01
2023-03-16T18:19:50.728Z,5.97
2023-03-16T18:22:22.046Z,6.05
2023-03-16T18:24:50.014Z,6.12
2023-03-16T18:27:16.693Z,6.21
2023-03-16T18:29:44.377Z,6.22
2023-03-16T18:32:27.343Z,6.22
2023-03-16T18:34:54.029Z,6.29
2023-03-16T18:37:23.487Z,6.30
2023-03-16T18:39:51.314Z,6.37
2023-03-16T18:42:23.158Z,6.33
2023-03-16T18:44:50.269Z,6.28
2023-03-16T18:47:20.015Z,6.21
2023-03-16T18:49:49.383Z,6.05
2023-03-16T18:52:22.174Z,5.93
2023-03-16T18:54:49.073Z,5.85
2023-03-16T18:57:30.881Z,5.94
2023-03-16T18:59:57.386Z,5.99
2023-03-16T19:02:30.357Z,5.96
2023-03-16T19:04:59.747Z,6.01
2023-03-16T19:07:33.868Z,6.03
2023-03-16T19:10:17.816Z,5.93
2023-03-16T19:12:44.349Z,5.92
2023-03-16T19:15:32.450Z,5.89
2023-03-16T19:18:01.738Z,5.93
2023-03-16T19:20:32.454Z,5.84
2023-03-16T19:23:05.202Z,5.85
2023-03-16T19:25:37.078Z,5.96
2023-03-16T19:28:06.356Z,5.99
2023-03-16T19:30:35.214Z,6.11
2023-03-16T19:33:01.878Z,6.30
2023-03-16T19:35:48.575Z,6.30
2023-03-16T19:38:17.305Z,6.23
2023-03-16T19:40:44.484Z,6.19
2023-03-16T19:43:17.382Z,6.18
2023-03-16T19:45:44.694Z,6.18
2023-03-16T19:48:20.312Z,6.19
2023-03-16T19:50:49.141Z,6.19
2023-03-16T19:53:19.138Z,6.15
2023-03-16T19:55:48.066Z,6.17
2023-03-16T19:58:20.984Z,6.19
2023-03-16T20:00:47.836Z,6.25
2023-03-16T20:03:14.755Z,6.22
2023-03-16T20:05:41.292Z,6.20
2023-03-16T20:08:25.349Z,6.23
2023-03-16T20:10:54.048Z,6.27
2023-03-16T20:13:24.714Z,6.16
2023-03-16T20:15:51.298Z,6.04
2023-03-16T20:18:18.960Z,6.02
2023-03-16T20:20:46.124Z,6.01
2023-03-16T20:23:24.197Z,5.99
2023-03-16T20:25:54.553Z,5.89
2023-03-16T20:28:27.652Z,5.90
2023-03-16T20:30:54.282Z,5.97
2023-03-16T20:33:26.192Z,6.23
2023-03-16T20:35:56.239Z,6.28
2023-03-16T20:38:23.512Z,6.17
2023-03-16T20:40:52.795Z,6.03
2023-03-16T20:43:31.351Z,6.04
2023-03-16T20:46:01.412Z,5.97
2023-03-16T20:48:31.048Z,6.01
2023-03-16T20:51:00.588Z,6.20
2023-03-16T20:53:27.537Z,6.15
2023-03-16T20:55:55.187Z,6.19
2023-03-16T20:58:25.332Z,6.29
2023-03-16T21:00:57.595Z,6.39
2023-03-16T21:03:27.567Z,6.72
2023-03-16T21:05:58.345Z,6.78
2023-03-16T21:08:26.340Z,6.73
2023-03-16T21:10:53.767Z,6.82
2023-03-16T21:13:33.657Z,6.74
2023-03-16T21:16:01.884Z,6.66
2023-03-16T21:18:30.381Z,6.61
2023-03-16T21:20:58.135Z,6.57
2023-03-16T21:23:24.704Z,6.57
2023-03-16T21:25:54.744Z,6.64
2023-03-16T21:28:24.177Z,6.60
2023-03-16T21:30:53.720Z,6.80
2023-03-16T21:33:22.080Z,7.15
2023-03-16T21:35:49.128Z,7.09
2023-03-16T21:38:19.057Z,6.95
2023-03-16T21:40:46.650Z,6.88
2023-03-16T21:43:14.481Z,6.83
2023-03-16T21:45:41.827Z,6.89
2023-03-16T21:48:23.977Z,6.92
2023-03-16T21:50:51.322Z,6.92
2023-03-16T21:53:23.677Z,6.87
2023-03-16T21:55:51.811Z,6.85
2023-03-16T21:58:18.969Z,6.84
2023-03-16T22:00:46.791Z,6.72
2023-03-16T22:03:24.305Z,6.72
2023-03-16T22:05:51.117Z,6.64
2023-03-16T22:08:24.086Z,6.48
2023-03-16T22:10:51.348Z,6.49
2023-03-16T22:13:19.171Z,6.65
2023-03-16T22:15:46.859Z,6.72
2023-03-16T22:18:25.308Z,6.81
2023-03-16T22:20:51.838Z,6.79
2023-03-16T22:23:36.061Z,6.78
2023-03-16T22:26:04.956Z,6.63
2023-03-16T22:28:32.836Z,6.71
2023-03-16T22:31:01.883Z,6.83
2023-03-16T22:33:31.352Z,6.82
2023-03-16T22:36:08.294Z,6.79
2023-03-16T22:38:35.656Z,6.78
2023-03-16T22:41:05.588Z,6.78
2023-03-16T22:43:37.342Z,6.77
2023-03-16T22:46:04.381Z,6.83
2023-03-16T22:48:31.479Z,6.92
2023-03-16T22:51:02.468Z,6.90
2023-03-16T22:53:41.377Z,6.88
2023-03-16T22:56:10.355Z,6.87
2023-03-16T22:58:39.750Z,6.88
2023-03-16T23:01:23.032Z,6.94
2023-03-16T23:03:52.871Z,6.98
2023-03-16T23:06:23.176Z,7.00
2023-03-16T23:08:50.738Z,7.04
2023-03-16T23:11:25.119Z,7.10
2023-03-16T23:13:55.388Z,7.05
2023-03-16T23:16:28.353Z,7.03
2023-03-16T23:18:55.428Z,7.10
2023-03-16T23:21:24.514Z,7.13
2023-03-16T23:24:03.010Z,7.15
2023-03-16T23:26:31.069Z,7.14
2023-03-16T23:28:59.033Z,7.16
2023-03-16T23:31:27.037Z,7.10
2023-03-16T23:33:53.762Z,7.07
2023-03-16T23:36:22.676Z,7.07
2023-03-16T23:38:50.482Z,7.16
2023-03-16T23:41:25.194Z,7.24
2023-03-16T23:43:53.073Z,7.20
2023-03-16T23:46:24.509Z,7.18
2023-03-16T23:48:53.593Z,7.25
2023-03-16T23:51:27.240Z,7.29
2023-03-16T23:53:58.424Z,7.26
2023-03-16T23:56:26.393Z,7.27
2023-03-16T23:58:53.999Z,7.17
